Terminal Aerodrome Forecast
Issued by NWS

Home | Current Version | Previous Version | Text Only | Print | Product List | Glossary On
Versions: 1 2 3 4 5 6 7 8 9 10 11 12 13 14 15 16 17 18 19 20 21 22 23 24 25 26
000
FTUS43 KBIS 051606 AAD
TAFMOT
TAF AMD
KMOT 051606Z 0516/0612 01008KT 5SM BR BKN006
     FM051700 36011KT 6SM HZ BKN012
     FM051900 01015KT P6SM BKN035 BKN070
     FM060100 33007KT P6SM SCT070=

USA.gov is the U.S. government's official web portal to all federal, state and local government web resources and services.